Ginys del Meteocat

Dades de l'estació automàtica Alfarràs

?
?
Resum diari 22:30 TU
Dades diàries de l'estació meteorològica
Temperatura mitjana 8.4 °C
Temperatura màxima 13.6 °C 14:51 TU
Temperatura mínima 3.3 °C 5:00 TU
Humitat relativa mitjana 85%
Precipitació acumulada 0.1 mm
Ratxa màxima del vent (2 m) 16.2 km/h - 123º 13:18 TU

El tram horari està expressat en Temps Universal (TU). Cal sumar una hora en horari d'hivern i dues en horari d'estiu per passar a l'hora oficial.

Alfarràs

Metadades estació meteorol´gica
Municipi Alfarràs
Comarca Segrià
Altitud 268 m
Data alta 17.09.1997
Estat actual Operativa
Dades de període
Període
TU
TM
°C
TX
°C
TN
°C
HRM
%
PPT
mm
VVM (2 m)
km/h
DVM (2 m)
graus
VVX (2 m)
km/h
00:00 - 00:30 5.4 5.6 5.2 100 0.0 0.0 13 1.4
00:30 - 01:00 5.3 5.4 5.2 100 0.0 0.4 285 1.8
01:00 - 01:30 5.2 5.3 4.9 100 0.0 0.0 187 1.4
01:30 - 02:00 4.9 5.0 4.7 100 0.0 0.0 0 0.0
02:00 - 02:30 4.8 4.9 4.6 100 0.0 0.4 218 2.2
02:30 - 03:00 4.8 4.9 4.6 100 0.0 0.4 250 2.2
03:00 - 03:30 4.7 4.8 4.5 100 0.0 0.0 241 0.7
03:30 - 04:00 4.6 4.8 4.3 100 0.0 0.4 296 2.5
04:00 - 04:30 4.3 4.4 4.1 100 0.0 0.0 0 0.0
04:30 - 05:00 3.8 4.3 3.3 100 0.0 0.7 208 2.9
05:00 - 05:30 3.7 4.1 3.3 100 0.0 0.0 283 2.5
05:30 - 06:00 4.2 4.3 4.1 100 0.0 0.4 316 2.5
06:00 - 06:30 4.5 4.7 4.2 100 0.0 1.4 306 4.0
06:30 - 07:00 4.8 5.0 4.7 100 0.0 0.7 329 3.2
07:00 - 07:30 4.9 5.0 4.8 100 0.0 0.0 303 1.8
07:30 - 08:00 5.1 5.4 4.9 100 0.0 0.0 19 2.2
08:00 - 08:30 5.9 6.5 5.4 100 0.0 0.7 326 2.5
08:30 - 09:00 7.0 7.6 6.5 96 0.0 0.7 292 2.9
09:00 - 09:30 7.9 8.1 7.6 93 0.0 0.7 109 2.5
09:30 - 10:00 8.3 8.6 8.1 91 0.0 0.7 90 2.5
10:00 - 10:30 9.2 9.6 8.6 85 0.0 1.4 182 5.0
10:30 - 11:00 10.0 10.8 9.5 79 0.0 1.1 215 5.0
11:00 - 11:30 11.4 11.8 10.8 71 0.0 2.2 167 6.5
11:30 - 12:00 11.8 12.0 11.6 68 0.0 5.8 126 11.9
12:00 - 12:30 12.3 12.6 11.9 66 0.0 7.9 126 14.4
12:30 - 13:00 12.2 12.7 12.0 68 0.0 7.9 129 15.5
13:00 - 13:30 12.3 12.7 12.2 69 0.0 7.9 118 16.2
13:30 - 14:00 12.6 13.1 12.2 67 0.0 7.6 107 14.8
14:00 - 14:30 12.9 13.2 12.7 64 0.0 7.2 108 13.7
14:30 - 15:00 13.3 13.6 12.9 63 0.0 5.8 100 11.5
15:00 - 15:30 13.5 13.6 13.2 61 0.0 6.1 122 11.9
15:30 - 16:00 12.9 13.2 12.7 64 0.0 6.1 133 13.0
16:00 - 16:30 12.0 12.6 11.5 71 0.0 6.1 132 13.0
16:30 - 17:00 10.9 11.5 10.6 76 0.0 2.2 116 9.0
17:00 - 17:30 10.5 10.6 10.1 79 0.0 0.7 200 4.0
17:30 - 18:00 10.0 10.2 9.7 82 0.0 0.4 216 2.2
18:00 - 18:30 9.7 9.9 9.5 82 0.0 1.1 302 3.2
18:30 - 19:00 9.6 9.8 9.4 80 0.0 0.7 332 3.6
19:00 - 19:30 9.7 9.9 9.5 79 0.0 0.4 122 2.9
19:30 - 20:00 9.6 9.7 9.4 81 0.0 1.1 162 4.0
20:00 - 20:30 9.7 10.1 9.3 81 0.1 1.4 134 7.6
20:30 - 21:00 10.0 10.1 9.9 79 0.0 3.6 117 7.2
21:00 - 21:30 9.8 10.0 9.5 78 0.0 2.5 149 8.6
21:30 - 22:00 9.5 9.5 9.3 80 0.0 1.4 175 4.0
22:00 - 22:30 9.2 9.3 9.1 83 0.0 1.4 206 4.3
22:30 - 23:00 9.0 9.2 8.8 84 0.0 1.1 297 2.9
23:00 - 23:30 (s/d) (s/d) (s/d) (s/d) (s/d) (s/d) (s/d) (s/d)

Les dades en taronja només han passat un control de qualitat automàtic. Resta pendent la seva validació definitiva.